Time;durP1;ratioP1;P1;durP2;ratioP2;P2;SDS_P1;SDS_P2;PMS_P1;PMS_P2;Temp;Humidity;BMP_temperature;BMP_pressure;BME280_temperature;BME280_humidity;BME280_pressure;Samples;Min_cycle;Max_cycle;Signal;HPM_P1;HPM_P2
2023/09/17 00:01:11;;;;;;;23.80;18.00;;;19.70;99.90;;;;;;4977915;28;20218;-79
2023/09/17 00:03:37;;;;;;;22.07;15.97;;;19.70;99.90;;;;;;4976460;28;20380;-78
2023/09/17 00:06:03;;;;;;;19.50;15.67;;;19.50;99.90;;;;;;4977574;28;20237;-78
2023/09/17 00:08:29;;;;;;;17.80;15.80;;;19.50;99.90;;;;;;4976313;28;20182;-78
2023/09/17 00:10:54;;;;;;;17.73;15.70;;;19.40;99.90;;;;;;4976598;28;20210;-78
2023/09/17 00:13:20;;;;;;;19.73;15.23;;;19.50;99.90;;;;;;4976068;28;20688;-78
2023/09/17 00:15:46;;;;;;;21.67;17.43;;;19.50;99.90;;;;;;4976184;28;20190;-78
2023/09/17 00:18:12;;;;;;;18.00;16.10;;;19.40;99.90;;;;;;4977544;28;20175;-78
2023/09/17 00:20:38;;;;;;;23.53;17.83;;;19.50;99.90;;;;;;4975816;28;20202;-80
2023/09/17 00:23:04;;;;;;;21.90;19.40;;;19.40;99.90;;;;;;4977030;28;20253;-78
2023/09/17 00:25:30;;;;;;;23.77;20.13;;;19.40;99.90;;;;;;4977696;28;20167;-78
2023/09/17 00:27:55;;;;;;;21.33;19.07;;;19.50;99.90;;;;;;4975594;28;20180;-77
2023/09/17 00:30:21;;;;;;;21.33;18.80;;;19.50;99.90;;;;;;4975254;28;20174;-78
2023/09/17 00:32:47;;;;;;;22.97;19.07;;;19.50;99.90;;;;;;4977511;28;20197;-78
2023/09/17 00:35:12;;;;;;;20.20;17.80;;;19.60;99.90;;;;;;4976602;28;20186;-79
2023/09/17 00:37:38;;;;;;;20.17;17.53;;;19.50;99.90;;;;;;4976584;28;20277;-78
2023/09/17 00:40:11;;;;;;;21.00;18.80;;;19.50;99.90;;;;;;4977617;28;20483;-78
2023/09/17 00:42:37;;;;;;;21.00;18.47;;;19.50;99.90;;;;;;4976988;28;20193;-78
2023/09/17 00:45:04;;;;;;;26.60;21.17;;;19.40;99.90;;;;;;4976178;28;20197;-78
2023/09/17 00:47:31;;;;;;;25.37;20.10;;;19.50;99.90;;;;;;4976880;28;20578;-78
2023/09/17 00:49:57;;;;;;;27.13;23.30;;;19.60;99.90;;;;;;4974916;28;20175;-77
2023/09/17 00:52:23;;;;;;;29.67;24.73;;;19.60;99.90;;;;;;4975718;28;20194;-77
2023/09/17 00:54:50;;;;;;;32.93;26.10;;;19.50;99.90;;;;;;4975798;28;20178;-77
2023/09/17 00:57:16;;;;;;;24.47;21.33;;;19.50;99.90;;;;;;4976828;28;20206;-78
2023/09/17 00:59:45;;;;;;;28.30;23.87;;;19.50;99.90;;;;;;4976848;28;20241;-78
2023/09/17 01:02:12;;;;;;;31.90;25.77;;;19.40;99.90;;;;;;4976468;28;20209;-78
2023/09/17 01:04:40;;;;;;;31.50;24.67;;;19.50;99.90;;;;;;4974995;28;20181;-78
2023/09/17 01:07:07;;;;;;;30.60;26.07;;;19.40;99.90;;;;;;4975055;28;20245;-78
2023/09/17 01:09:34;;;;;;;29.93;26.73;;;19.40;99.90;;;;;;4974625;28;20189;-78
2023/09/17 01:12:00;;;;;;;31.27;28.03;;;19.40;99.90;;;;;;4974633;28;20205;-77
2023/09/17 01:14:26;;;;;;;32.40;28.90;;;19.40;99.90;;;;;;4974822;28;20190;-78
2023/09/17 01:16:54;;;;;;;31.40;28.30;;;19.30;99.90;;;;;;4975932;28;20236;-78
2023/09/17 01:19:28;;;;;;;31.10;27.90;;;19.30;99.90;;;;;;4974287;28;20184;-77
2023/09/17 01:22:07;;;;;;;31.90;28.30;;;19.30;99.90;;;;;;4975621;28;20206;-77
2023/09/17 01:25:00;;;;;;;32.73;29.30;;;19.20;99.90;;;;;;4975638;28;20242;-77
2023/09/17 01:27:27;;;;;;;31.00;27.80;;;19.20;99.90;;;;;;4975397;28;20166;-78
2023/09/17 01:29:54;;;;;;;30.40;27.17;;;19.20;99.90;;;;;;4975351;28;20619;-77
2023/09/17 01:32:20;;;;;;;29.93;26.93;;;19.20;99.90;;;;;;4974087;28;20205;-77
2023/09/17 01:34:49;;;;;;;31.50;28.03;;;19.30;99.90;;;;;;4973237;28;20261;-77
2023/09/17 01:37:23;;;;;;;30.87;27.43;;;19.10;99.90;;;;;;4975330;28;20189;-78
2023/09/17 01:39:56;;;;;;;30.40;26.07;;;19.10;99.90;;;;;;4974178;28;20547;-77
2023/09/17 01:42:23;;;;;;;31.50;27.93;;;19.00;99.90;;;;;;4975238;28;20548;-77
2023/09/17 01:44:49;;;;;;;29.80;26.67;;;19.00;99.90;;;;;;4975213;28;20249;-77
2023/09/17 01:47:17;;;;;;;27.63;24.73;;;19.00;99.90;;;;;;4973533;28;20236;-77
2023/09/17 01:49:43;;;;;;;27.50;24.70;;;18.90;99.90;;;;;;4974215;28;20197;-77
2023/09/17 01:52:10;;;;;;;29.27;26.10;;;19.00;99.90;;;;;;4973689;28;20289;-77
2023/09/17 01:54:36;;;;;;;31.90;25.73;;;18.90;99.90;;;;;;4975277;28;20182;-77
2023/09/17 01:57:02;;;;;;;27.73;25.03;;;18.90;99.90;;;;;;4975340;28;20170;-78
2023/09/17 01:59:27;;;;;;;26.67;23.87;;;18.90;99.90;;;;;;4973762;28;20337;-78
2023/09/17 02:01:53;;;;;;;26.93;24.13;;;18.90;99.90;;;;;;4974806;28;20221;-77
2023/09/17 02:04:18;;;;;;;27.77;24.03;;;18.80;99.90;;;;;;4975179;28;20174;-78
2023/09/17 02:06:45;;;;;;;27.23;24.40;;;18.90;99.90;;;;;;4974955;28;20669;-77
2023/09/17 02:09:12;;;;;;;29.93;25.40;;;18.80;99.90;;;;;;4975030;28;20178;-77
2023/09/17 02:11:38;;;;;;;28.50;25.07;;;18.70;99.90;;;;;;4974806;28;20202;-77
2023/09/17 02:14:04;;;;;;;28.07;25.13;;;18.80;99.90;;;;;;4974986;28;20231;-78
2023/09/17 02:16:31;;;;;;;33.30;26.67;;;18.70;99.90;;;;;;4974704;28;20174;-77
2023/09/17 02:18:57;;;;;;;29.23;26.13;;;18.80;99.90;;;;;;4973871;28;20182;-79
2023/09/17 02:21:23;;;;;;;28.23;25.20;;;18.70;99.90;;;;;;4974667;28;20595;-78
2023/09/17 02:23:49;;;;;;;27.97;25.20;;;18.70;99.90;;;;;;4975033;28;20329;-78
2023/09/17 02:26:15;;;;;;;31.23;25.43;;;18.70;99.90;;;;;;4973457;28;20237;-78
2023/09/17 02:28:41;;;;;;;28.53;25.40;;;18.60;99.90;;;;;;4974705;28;20166;-77
2023/09/17 02:31:06;;;;;;;35.00;27.30;;;18.60;99.90;;;;;;4972879;28;20209;-77
2023/09/17 02:33:32;;;;;;;30.27;25.33;;;18.70;99.90;;;;;;4974449;28;20257;-77
2023/09/17 02:35:58;;;;;;;32.37;25.30;;;18.60;99.90;;;;;;4974562;28;20245;-77
2023/09/17 02:38:26;;;;;;;31.70;25.47;;;18.60;99.90;;;;;;4973057;28;20252;-77
2023/09/17 02:40:52;;;;;;;28.77;25.07;;;18.60;99.90;;;;;;4974749;28;20205;-78
2023/09/17 02:43:17;;;;;;;28.47;25.33;;;18.60;99.90;;;;;;4974356;28;20286;-78
2023/09/17 02:45:43;;;;;;;30.17;26.83;;;18.60;99.90;;;;;;4977117;28;20178;-77
2023/09/17 02:48:11;;;;;;;32.33;26.37;;;18.60;99.90;;;;;;4980911;28;20181;-78
2023/09/17 02:50:39;;;;;;;30.43;25.27;;;18.60;99.90;;;;;;4979135;28;20201;-79
2023/09/17 02:53:05;;;;;;;29.90;24.50;;;18.50;99.90;;;;;;4979377;28;20264;-77
2023/09/17 02:55:32;;;;;;;30.07;26.17;;;18.70;99.90;;;;;;4979803;28;20181;-77
2023/09/17 02:57:57;;;;;;;28.67;25.50;;;18.50;99.90;;;;;;4980834;28;20205;-77
2023/09/17 03:00:23;;;;;;;31.53;26.13;;;18.50;99.90;;;;;;4979415;28;20246;-77
2023/09/17 03:02:54;;;;;;;29.90;25.53;;;18.60;99.90;;;;;;4980537;28;20198;-78
2023/09/17 03:05:20;;;;;;;32.57;26.97;;;18.50;99.90;;;;;;4980670;28;20203;-78
2023/09/17 03:07:46;;;;;;;31.57;26.20;;;18.50;99.90;;;;;;4979586;28;20178;-77
2023/09/17 03:10:12;;;;;;;29.70;26.57;;;18.50;99.90;;;;;;4979548;28;20178;-76
2023/09/17 03:12:38;;;;;;;30.00;26.83;;;18.50;99.90;;;;;;4979186;28;20762;-77
2023/09/17 03:15:05;;;;;;;29.90;24.73;;;18.50;99.90;;;;;;4979360;28;20214;-78
2023/09/17 03:17:31;;;;;;;30.67;26.20;;;18.50;99.90;;;;;;4980456;28;20174;-77
2023/09/17 03:19:57;;;;;;;31.53;25.80;;;18.50;99.90;;;;;;4979292;28;20178;-78
2023/09/17 03:22:22;;;;;;;28.47;25.40;;;18.40;99.90;;;;;;4980234;28;20221;-78
2023/09/17 03:24:48;;;;;;;33.57;26.40;;;18.40;99.90;;;;;;4980699;28;20254;-78
2023/09/17 03:27:14;;;;;;;30.47;25.60;;;18.40;99.90;;;;;;4980904;28;20166;-78
2023/09/17 03:29:39;;;;;;;30.97;25.87;;;18.40;99.90;;;;;;4981042;28;20690;-77
2023/09/17 03:32:05;;;;;;;27.47;24.67;;;18.40;99.90;;;;;;4978891;28;20271;-77
2023/09/17 03:34:32;;;;;;;31.03;24.67;;;18.40;99.90;;;;;;4980274;28;20181;-79
2023/09/17 03:36:58;;;;;;;30.40;26.13;;;18.40;99.90;;;;;;4978778;28;20642;-77
2023/09/17 03:39:24;;;;;;;31.13;26.60;;;18.40;99.90;;;;;;4980323;28;20208;-77
2023/09/17 03:41:49;;;;;;;29.27;25.07;;;18.40;99.90;;;;;;4980107;28;20213;-77
2023/09/17 03:44:15;;;;;;;33.43;26.27;;;18.40;99.90;;;;;;4979262;28;20269;-77
2023/09/17 03:46:40;;;;;;;29.40;26.30;;;18.40;99.90;;;;;;4980716;28;20198;-77
2023/09/17 03:49:06;;;;;;;28.67;25.17;;;18.30;99.90;;;;;;4979034;28;20657;-77
2023/09/17 03:51:32;;;;;;;38.13;26.73;;;18.30;99.90;;;;;;4980447;28;20213;-77
2023/09/17 03:53:59;;;;;;;29.00;25.10;;;18.30;99.90;;;;;;4980510;28;20269;-78
2023/09/17 03:56:25;;;;;;;27.90;24.93;;;18.30;99.90;;;;;;4979738;28;20182;-77
2023/09/17 03:58:51;;;;;;;30.27;25.37;;;18.30;99.90;;;;;;4976979;28;20181;-78
2023/09/17 04:01:18;;;;;;;31.17;26.20;;;18.30;99.90;;;;;;4976177;28;20226;-77
2023/09/17 04:03:44;;;;;;;29.53;26.33;;;18.30;99.90;;;;;;4977203;28;20173;-77
2023/09/17 04:06:10;;;;;;;30.17;26.50;;;18.30;99.90;;;;;;4977074;28;20185;-77
2023/09/17 04:08:36;;;;;;;27.83;24.83;;;18.20;99.90;;;;;;4977104;28;20545;-77
2023/09/17 04:11:04;;;;;;;30.90;26.10;;;18.20;99.90;;;;;;4977297;28;20202;-77
2023/09/17 04:13:29;;;;;;;29.83;24.67;;;18.10;99.90;;;;;;4977302;28;20222;-77
2023/09/17 04:15:55;;;;;;;30.33;26.50;;;18.20;99.90;;;;;;4976797;28;20178;-78
2023/09/17 04:18:20;;;;;;;27.83;24.80;;;18.20;99.90;;;;;;4977355;28;20178;-77
2023/09/17 04:20:47;;;;;;;30.43;25.77;;;18.10;99.90;;;;;;4976835;28;20569;-79
2023/09/17 04:23:13;;;;;;;28.90;24.83;;;18.10;99.90;;;;;;4977533;28;20626;-77
2023/09/17 04:25:38;;;;;;;32.47;26.93;;;18.10;99.90;;;;;;4977005;28;20228;-78
2023/09/17 04:28:05;;;;;;;34.37;26.83;;;18.10;99.90;;;;;;4977263;28;20174;-78
2023/09/17 04:30:30;;;;;;;29.33;26.13;;;18.10;99.90;;;;;;4976805;28;20553;-77
2023/09/17 04:32:56;;;;;;;34.40;27.13;;;18.10;99.90;;;;;;4976495;28;20194;-77
2023/09/17 04:35:22;;;;;;;30.70;25.63;;;18.10;99.90;;;;;;4975509;28;20190;-79
2023/09/17 04:37:49;;;;;;;29.97;26.43;;;18.10;99.90;;;;;;4975188;28;20232;-78
2023/09/17 04:40:17;;;;;;;32.07;26.60;;;18.10;99.90;;;;;;4976482;28;20162;-78
2023/09/17 04:42:45;;;;;;;33.77;26.37;;;18.10;99.90;;;;;;4975010;28;20546;-78
2023/09/17 04:45:12;;;;;;;32.57;26.57;;;18.00;99.90;;;;;;4976259;28;20170;-78
2023/09/17 04:47:39;;;;;;;30.70;26.07;;;18.00;99.90;;;;;;4975000;28;20266;-78
2023/09/17 04:50:09;;;;;;;36.27;27.13;;;18.00;99.90;;;;;;4974898;28;20253;-78
2023/09/17 04:52:35;;;;;;;32.67;26.40;;;18.00;99.90;;;;;;4974977;28;20209;-78
2023/09/17 04:55:01;;;;;;;33.03;27.23;;;18.10;99.90;;;;;;4976353;28;20193;-78
2023/09/17 04:57:27;;;;;;;33.90;25.80;;;18.00;99.90;;;;;;4976231;28;20665;-78
2023/09/17 04:59:52;;;;;;;33.27;26.37;;;17.80;99.90;;;;;;4975418;28;20178;-78
2023/09/17 05:02:18;;;;;;;37.53;27.13;;;17.90;99.90;;;;;;4974501;28;20702;-77
2023/09/17 05:04:44;;;;;;;30.53;26.50;;;17.90;99.90;;;;;;4976460;28;20178;-78
2023/09/17 05:07:10;;;;;;;39.23;28.43;;;18.00;99.90;;;;;;4976474;28;20174;-78
2023/09/17 05:09:35;;;;;;;33.83;27.57;;;17.90;99.90;;;;;;4974568;28;20548;-78
2023/09/17 05:12:01;;;;;;;34.67;26.77;;;17.90;99.90;;;;;;4975899;28;20676;-78
2023/09/17 05:14:28;;;;;;;36.30;27.57;;;17.90;99.90;;;;;;4976517;28;20175;-77
2023/09/17 05:16:54;;;;;;;36.60;29.33;;;17.90;99.90;;;;;;4974220;28;20178;-78
2023/09/17 05:19:19;;;;;;;33.33;28.83;;;17.80;99.90;;;;;;4975711;28;20175;-77
2023/09/17 05:21:45;;;;;;;32.27;27.97;;;17.90;99.90;;;;;;4975535;28;20202;-78
2023/09/17 05:24:10;;;;;;;39.20;28.57;;;17.80;99.90;;;;;;4975677;28;20175;-78
2023/09/17 05:26:36;;;;;;;36.83;29.17;;;17.90;99.90;;;;;;4974410;28;20177;-77
2023/09/17 05:29:01;;;;;;;36.00;30.17;;;17.90;99.90;;;;;;4975419;28;20171;-77
2023/09/17 05:31:27;;;;;;;36.97;29.77;;;17.90;99.90;;;;;;4974942;28;20198;-77
2023/09/17 05:33:53;;;;;;;34.53;29.23;;;17.70;99.90;;;;;;4975107;28;20179;-77
2023/09/17 05:36:19;;;;;;;34.43;30.30;;;17.80;99.90;;;;;;4975471;28;20202;-78
2023/09/17 05:38:44;;;;;;;39.53;30.20;;;17.90;99.90;;;;;;4975505;28;20241;-77
2023/09/17 05:41:12;;;;;;;38.83;30.40;;;17.90;99.90;;;;;;4973733;28;20267;-77
2023/09/17 05:43:38;;;;;;;39.87;30.17;;;17.80;99.90;;;;;;4975357;28;20787;-77
2023/09/17 05:46:04;;;;;;;39.17;30.03;;;17.80;99.90;;;;;;4973775;28;20178;-77
2023/09/17 05:48:30;;;;;;;38.67;29.90;;;17.70;99.90;;;;;;4975412;28;20183;-78
2023/09/17 05:50:56;;;;;;;38.40;30.93;;;17.90;99.90;;;;;;4974892;28;20166;-77
2023/09/17 05:53:21;;;;;;;36.43;30.00;;;17.80;99.90;;;;;;4974811;28;20178;-77
2023/09/17 05:55:47;;;;;;;39.13;30.53;;;18.00;99.90;;;;;;4975174;28;20178;-77
2023/09/17 05:58:12;;;;;;;43.67;31.23;;;17.80;99.90;;;;;;4975048;28;20181;-77
2023/09/17 06:00:38;;;;;;;38.87;30.73;;;17.90;99.90;;;;;;4974890;28;20197;-79
2023/09/17 06:03:04;;;;;;;37.93;30.33;;;17.80;99.90;;;;;;4974738;28;20198;-77
2023/09/17 06:05:30;;;;;;;37.27;30.30;;;17.90;99.90;;;;;;4973590;28;20224;-77
2023/09/17 06:07:55;;;;;;;41.43;30.90;;;17.80;99.90;;;;;;4974834;28;20222;-77
2023/09/17 06:10:22;;;;;;;41.77;32.63;;;17.90;99.90;;;;;;4974681;28;20182;-77
2023/09/17 06:12:47;;;;;;;39.73;30.33;;;17.90;99.90;;;;;;4973104;28;20227;-77
2023/09/17 06:15:13;;;;;;;42.43;31.80;;;17.90;99.90;;;;;;4974509;28;20193;-77
2023/09/17 06:17:39;;;;;;;43.53;31.03;;;17.80;99.90;;;;;;4974736;28;20177;-78
2023/09/17 06:20:05;;;;;;;38.17;31.33;;;17.90;99.90;;;;;;4972726;28;20225;-77
2023/09/17 06:22:31;;;;;;;35.47;29.87;;;17.90;99.90;;;;;;4973331;28;20618;-77
2023/09/17 06:24:57;;;;;;;41.77;31.80;;;17.90;99.90;;;;;;4974277;28;20170;-78
2023/09/17 06:27:23;;;;;;;37.67;30.33;;;17.90;99.90;;;;;;4974497;28;20177;-77
2023/09/17 06:29:48;;;;;;;40.27;32.07;;;17.90;99.90;;;;;;4974627;28;20204;-77
2023/09/17 06:32:14;;;;;;;38.30;31.40;;;18.00;99.90;;;;;;4974024;28;20204;-77
2023/09/17 06:34:40;;;;;;;39.90;31.53;;;18.00;99.90;;;;;;4974396;28;20182;-77
2023/09/17 06:37:06;;;;;;;40.07;32.30;;;17.90;99.90;;;;;;4974198;28;20182;-77
2023/09/17 06:39:32;;;;;;;45.53;32.50;;;17.90;99.90;;;;;;4973925;28;20190;-77
2023/09/17 06:41:59;;;;;;;42.37;31.93;;;18.00;99.90;;;;;;4974236;28;20230;-77
2023/09/17 06:44:24;;;;;;;42.87;32.50;;;18.10;99.90;;;;;;4972895;28;20246;-77
2023/09/17 06:46:50;;;;;;;43.80;32.37;;;18.10;99.90;;;;;;4972822;28;20201;-77
2023/09/17 06:49:16;;;;;;;42.00;32.03;;;18.20;99.90;;;;;;4973948;28;20654;-78
2023/09/17 06:51:41;;;;;;;47.73;33.47;;;18.20;99.90;;;;;;4972818;28;20202;-77
2023/09/17 06:54:07;;;;;;;41.20;32.13;;;18.30;99.90;;;;;;4974080;28;20188;-77
2023/09/17 06:56:33;;;;;;;42.10;32.47;;;18.30;99.90;;;;;;4973060;28;20261;-77
2023/09/17 06:58:58;;;;;;;38.37;30.83;;;18.40;99.90;;;;;;4972622;28;20260;-77
2023/09/17 07:01:24;;;;;;;38.57;30.27;;;18.50;99.90;;;;;;4972718;28;20217;-77
2023/09/17 07:03:49;;;;;;;40.07;29.70;;;18.50;99.90;;;;;;4974380;28;20170;-77
2023/09/17 07:06:16;;;;;;;38.77;28.30;;;18.50;99.90;;;;;;4972796;28;20185;-77
2023/09/17 07:08:41;;;;;;;41.70;27.97;;;18.60;99.90;;;;;;4972684;28;20265;-77
2023/09/17 07:11:07;;;;;;;29.77;25.20;;;18.70;99.90;;;;;;4972812;28;20293;-77
2023/09/17 07:13:33;;;;;;;39.70;25.03;;;18.70;99.90;;;;;;4974500;28;20177;-77
2023/09/17 07:15:59;;;;;;;36.17;24.33;;;18.80;99.90;;;;;;4972915;28;20257;-77
2023/09/17 07:18:26;;;;;;;35.07;23.00;;;18.90;99.90;;;;;;4974420;28;20655;-78
2023/09/17 07:20:52;;;;;;;29.03;21.33;;;18.90;99.90;;;;;;4974773;28;20198;-79
2023/09/17 07:23:17;;;;;;;27.90;20.73;;;19.00;99.90;;;;;;4973490;28;20245;-77
2023/09/17 07:25:45;;;;;;;24.30;19.63;;;19.00;99.90;;;;;;4974358;28;20176;-79
2023/09/17 07:28:11;;;;;;;23.40;18.50;;;19.00;99.90;;;;;;4978958;28;20222;-77
2023/09/17 07:30:37;;;;;;;23.53;16.90;;;19.10;99.90;;;;;;4976749;28;20554;-79
2023/09/17 07:33:05;;;;;;;17.60;15.33;;;19.20;99.90;;;;;;4976315;28;20262;-78
2023/09/17 07:35:37;;;;;;;20.33;14.67;;;19.30;99.90;;;;;;4978164;28;20179;-78
2023/09/17 07:38:03;;;;;;;19.70;14.23;;;19.30;99.90;;;;;;4976412;28;20256;-78
2023/09/17 07:40:28;;;;;;;15.73;13.40;;;19.30;99.90;;;;;;4977973;28;20253;-78
2023/09/17 07:42:54;;;;;;;14.13;12.53;;;19.40;99.90;;;;;;4976187;28;20571;-78
2023/09/17 07:45:19;;;;;;;14.07;12.67;;;19.40;99.90;;;;;;4977591;28;20185;-78
2023/09/17 07:47:45;;;;;;;16.17;13.40;;;19.50;99.90;;;;;;4976420;28;20171;-78
2023/09/17 07:50:11;;;;;;;16.53;13.00;;;19.40;99.90;;;;;;4978015;28;20171;-78
2023/09/17 07:52:38;;;;;;;16.87;13.47;;;19.50;99.90;;;;;;4975974;28;20194;-78
2023/09/17 07:55:04;;;;;;;17.03;12.67;;;19.40;99.90;;;;;;4978073;28;20202;-77
2023/09/17 07:57:29;;;;;;;18.87;12.60;;;19.50;99.90;;;;;;4976146;28;20174;-78
2023/09/17 07:59:55;;;;;;;13.17;11.73;;;19.60;99.90;;;;;;4977363;28;20261;-78
2023/09/17 08:02:21;;;;;;;16.10;11.93;;;19.60;99.90;;;;;;4978022;28;20206;-78
2023/09/17 08:04:46;;;;;;;16.03;12.00;;;19.60;99.90;;;;;;4977627;28;20198;-78
2023/09/17 08:07:12;;;;;;;14.00;11.97;;;19.60;99.90;;;;;;4976135;28;20225;-78
2023/09/17 08:09:38;;;;;;;14.30;12.07;;;19.70;99.90;;;;;;4977749;28;20178;-78
2023/09/17 08:12:05;;;;;;;14.13;12.10;;;19.70;99.90;;;;;;4977247;28;20518;-76
2023/09/17 08:14:32;;;;;;;14.30;12.80;;;19.70;99.90;;;;;;4977417;28;20175;-78
2023/09/17 08:16:58;;;;;;;12.80;11.43;;;19.70;99.90;;;;;;4977541;28;20202;-78
2023/09/17 08:19:24;;;;;;;16.40;11.97;;;19.80;99.90;;;;;;4976003;28;20174;-78
2023/09/17 08:21:49;;;;;;;14.23;12.20;;;19.90;99.90;;;;;;4975469;28;20217;-78
2023/09/17 08:24:17;;;;;;;11.53;10.33;;;19.80;99.90;;;;;;4977551;28;20166;-77
2023/09/17 08:26:43;;;;;;;16.07;11.30;;;19.90;99.90;;;;;;4975775;28;20178;-78
2023/09/17 08:29:09;;;;;;;13.73;10.83;;;19.90;99.90;;;;;;4976998;28;20609;-77
2023/09/17 08:31:35;;;;;;;13.33;10.50;;;20.00;99.90;;;;;;4975783;28;20198;-78
2023/09/17 08:34:03;;;;;;;16.53;10.03;;;20.00;99.90;;;;;;4976841;28;20241;-78
2023/09/17 08:36:29;;;;;;;12.47;9.20;;;19.90;99.90;;;;;;4975560;28;20187;-78
2023/09/17 08:38:54;;;;;;;11.77;8.17;;;20.10;99.90;;;;;;4976638;28;20194;-78
2023/09/17 08:41:22;;;;;;;11.20;7.37;;;20.20;99.90;;;;;;4976480;28;20211;-78
2023/09/17 08:43:51;;;;;;;11.90;8.57;;;20.10;99.90;;;;;;4975168;28;20178;-78
2023/09/17 08:46:17;;;;;;;8.00;6.77;;;20.10;99.90;;;;;;4975770;28;20289;-76
2023/09/17 08:48:43;;;;;;;7.67;6.93;;;20.20;99.90;;;;;;4974978;28;20178;-78
2023/09/17 08:51:11;;;;;;;7.80;7.00;;;20.20;99.90;;;;;;4974896;28;20337;-77
2023/09/17 08:53:43;;;;;;;8.30;6.80;;;20.30;99.90;;;;;;4974928;28;20178;-78
2023/09/17 08:56:13;;;;;;;12.53;7.40;;;20.30;99.90;;;;;;4974828;28;20560;-78
2023/09/17 08:58:48;;;;;;;9.07;7.23;;;20.40;99.90;;;;;;4976577;28;20625;-77
2023/09/17 09:01:17;;;;;;;7.57;6.83;;;20.30;99.90;;;;;;4976355;28;20206;-77
2023/09/17 09:03:44;;;;;;;8.43;6.83;;;20.40;99.90;;;;;;4976552;28;20189;-77
2023/09/17 09:06:11;;;;;;;10.63;6.17;;;20.50;99.90;;;;;;4974863;28;20174;-78
2023/09/17 09:08:38;;;;;;;6.93;6.23;;;20.40;99.90;;;;;;4975359;28;20657;-78
2023/09/17 09:11:04;;;;;;;9.57;6.43;;;20.40;99.90;;;;;;4976194;28;20198;-77
2023/09/17 09:13:31;;;;;;;9.10;6.97;;;20.50;99.90;;;;;;4976250;28;20659;-78
2023/09/17 09:15:57;;;;;;;9.30;6.40;;;20.50;99.90;;;;;;4976279;28;20182;-77
2023/09/17 09:18:24;;;;;;;13.07;6.37;;;20.50;99.90;;;;;;4974817;28;20233;-78
2023/09/17 09:20:49;;;;;;;7.13;6.10;;;20.70;99.90;;;;;;4976253;28;20206;-77
2023/09/17 09:23:16;;;;;;;8.83;6.10;;;20.80;99.90;;;;;;4975176;28;20298;-78
2023/09/17 09:25:42;;;;;;;6.60;5.90;;;20.80;99.90;;;;;;4976462;28;20572;-79
2023/09/17 09:28:07;;;;;;;9.47;6.20;;;20.90;99.90;;;;;;4974729;28;20255;-78
2023/09/17 09:30:35;;;;;;;9.47;6.47;;;20.80;99.90;;;;;;4975965;28;20225;-78
2023/09/17 09:33:01;;;;;;;7.10;6.30;;;20.80;99.90;;;;;;4976583;28;20195;-78
2023/09/17 09:35:26;;;;;;;9.63;6.07;;;20.80;99.90;;;;;;4976700;28;20220;-77
2023/09/17 09:37:55;;;;;;;8.03;5.73;;;20.90;99.90;;;;;;4977523;28;20190;-78
2023/09/17 09:40:21;;;;;;;8.00;6.00;;;20.90;99.90;;;;;;4975852;28;20233;-78
2023/09/17 09:42:48;;;;;;;7.50;5.40;;;20.90;99.90;;;;;;4975215;28;20186;-78
2023/09/17 09:45:15;;;;;;;7.80;5.97;;;21.00;99.90;;;;;;4975471;28;20170;-77
2023/09/17 09:47:49;;;;;;;10.07;6.07;;;21.00;99.90;;;;;;4975271;28;20177;-78
2023/09/17 09:50:25;;;;;;;9.60;6.17;;;21.10;99.90;;;;;;4975270;28;20155;-77
2023/09/17 09:52:52;;;;;;;9.70;5.70;;;21.10;99.90;;;;;;4974957;28;20194;-78
2023/09/17 09:55:18;;;;;;;6.93;5.87;;;21.10;99.90;;;;;;4974780;28;20178;-78
2023/09/17 09:57:45;;;;;;;6.23;5.63;;;21.10;99.90;;;;;;4975189;28;20209;-78
2023/09/17 10:00:18;;;;;;;7.30;5.63;;;21.30;99.90;;;;;;4974333;28;20178;-78
2023/09/17 10:02:45;;;;;;;6.83;5.53;;;21.30;99.90;;;;;;4974037;28;20205;-78
2023/09/17 10:05:12;;;;;;;7.63;5.27;;;21.40;99.90;;;;;;4974912;28;20178;-78
2023/09/17 10:07:39;;;;;;;6.57;4.77;;;21.60;99.90;;;;;;4975234;28;20170;-78
2023/09/17 10:10:05;;;;;;;5.50;4.77;;;21.80;99.90;;;;;;4973868;28;20240;-78
2023/09/17 10:12:31;;;;;;;8.37;4.57;;;21.80;99.90;;;;;;4973838;28;20194;-78
2023/09/17 10:14:57;;;;;;;6.83;4.73;;;21.90;99.90;;;;;;4973656;28;20189;-78
2023/09/17 10:17:23;;;;;;;6.87;4.40;;;21.90;99.90;;;;;;4973788;28;20272;-77
2023/09/17 10:19:50;;;;;;;10.17;4.77;;;22.00;99.90;;;;;;4973829;28;20188;-78
2023/09/17 10:22:17;;;;;;;7.13;4.60;;;22.10;99.90;;;;;;4973566;28;20220;-78
2023/09/17 10:24:44;;;;;;;5.77;4.97;;;22.20;99.90;;;;;;4973855;28;20638;-77
2023/09/17 10:27:14;;;;;;;5.07;4.53;;;22.30;99.90;;;;;;4973821;28;20209;-78
2023/09/17 10:29:43;;;;;;;8.37;4.37;;;22.30;99.90;;;;;;4974756;28;20165;-78
2023/09/17 10:32:10;;;;;;;4.83;3.97;;;22.50;99.90;;;;;;4974736;28;20518;-78
2023/09/17 10:34:35;;;;;;;7.30;4.33;;;22.50;99.90;;;;;;4974494;28;20202;-77
2023/09/17 10:37:03;;;;;;;5.93;4.33;;;22.50;99.90;;;;;;4973424;28;20544;-78
2023/09/17 10:39:30;;;;;;;6.03;4.60;;;22.40;99.90;;;;;;4973222;28;20198;-77
2023/09/17 10:41:57;;;;;;;5.87;4.20;;;22.50;99.90;;;;;;4973118;28;20697;-78
2023/09/17 10:44:25;;;;;;;4.40;4.00;;;22.60;99.90;;;;;;4973278;28;20309;-77
2023/09/17 10:46:52;;;;;;;6.87;3.73;;;22.60;99.90;;;;;;4974605;28;20618;-77
2023/09/17 10:49:18;;;;;;;5.67;3.60;;;22.50;99.90;;;;;;4974331;28;20174;-78
2023/09/17 10:51:46;;;;;;;5.00;3.60;;;22.60;99.90;;;;;;4974410;28;20198;-78
2023/09/17 10:54:12;;;;;;;5.93;3.43;;;22.60;99.90;;;;;;4974537;28;20185;-77
2023/09/17 10:56:41;;;;;;;5.07;3.93;;;22.60;99.90;;;;;;4973733;28;20182;-78
2023/09/17 10:59:13;;;;;;;7.20;3.47;;;22.60;99.90;;;;;;4974409;28;20202;-78
2023/09/17 11:01:41;;;;;;;7.03;3.77;;;22.60;99.90;;;;;;4973038;28;20245;-77
2023/09/17 11:04:14;;;;;;;5.27;3.60;;;22.70;99.90;;;;;;4972854;28;20758;-78
2023/09/17 11:06:41;;;;;;;4.33;3.30;;;22.70;99.90;;;;;;4975497;28;20558;-78
2023/09/17 11:09:07;;;;;;;5.67;3.73;;;22.70;99.90;;;;;;4978316;28;20213;-77
2023/09/17 11:11:34;;;;;;;6.10;3.70;;;22.80;99.90;;;;;;4976869;28;20206;-78
2023/09/17 11:14:02;;;;;;;6.73;3.87;;;22.80;99.90;;;;;;4976777;28;20180;-77
2023/09/17 11:16:30;;;;;;;4.07;3.60;;;22.90;99.90;;;;;;4976898;28;20232;-78
2023/09/17 11:19:07;;;;;;;5.37;3.77;;;22.90;99.90;;;;;;4978453;28;20187;-78
2023/09/17 11:21:35;;;;;;;5.27;3.67;;;23.00;99.90;;;;;;4976701;28;20294;-77
2023/09/17 11:24:06;;;;;;;4.83;3.50;;;23.10;99.90;;;;;;4977341;28;20174;-78
2023/09/17 11:26:33;;;;;;;5.20;3.60;;;23.00;99.90;;;;;;4977856;28;20155;-78
2023/09/17 11:28:59;;;;;;;4.30;3.03;;;22.90;99.90;;;;;;4977911;28;20710;-78
2023/09/17 11:31:28;;;;;;;4.00;3.40;;;23.00;99.90;;;;;;4977994;28;20238;-78
2023/09/17 11:33:57;;;;;;;6.47;3.60;;;22.90;99.90;;;;;;4976938;28;20677;-78
2023/09/17 11:36:23;;;;;;;4.90;3.63;;;23.00;99.90;;;;;;4978303;28;20170;-78
2023/09/17 11:38:50;;;;;;;7.27;3.67;;;22.90;99.90;;;;;;4977392;28;20201;-78
2023/09/17 11:41:18;;;;;;;6.00;3.90;;;23.00;99.90;;;;;;4980295;28;20209;-77
2023/09/17 11:43:46;;;;;;;5.67;3.70;;;23.00;99.90;;;;;;4980380;28;20209;-77
2023/09/17 11:46:13;;;;;;;5.80;4.20;;;22.90;99.90;;;;;;4979037;28;20677;-77
2023/09/17 11:48:41;;;;;;;7.90;4.00;;;23.10;99.90;;;;;;4976159;28;20171;-78
2023/09/17 11:51:19;;;;;;;4.53;3.30;;;23.20;99.90;;;;;;4976050;28;20194;-77
2023/09/17 11:53:49;;;;;;;4.27;3.87;;;23.10;99.90;;;;;;4976202;28;20178;-78
2023/09/17 11:56:15;;;;;;;5.83;4.00;;;23.30;99.90;;;;;;4977502;28;20221;-78
2023/09/17 11:58:42;;;;;;;3.87;3.43;;;23.20;99.90;;;;;;4977514;28;20642;-77
2023/09/17 12:01:07;;;;;;;4.83;3.70;;;23.20;99.90;;;;;;4975886;28;20228;-77
2023/09/17 12:03:34;;;;;;;4.93;3.87;;;23.30;99.90;;;;;;4976035;28;20174;-78
2023/09/17 12:06:00;;;;;;;4.30;3.80;;;23.30;99.90;;;;;;4977249;28;20550;-77
2023/09/17 12:08:26;;;;;;;5.80;3.70;;;23.40;99.90;;;;;;4976013;28;20700;-77
2023/09/17 12:10:56;;;;;;;8.30;3.50;;;23.40;99.90;;;;;;4977060;28;20177;-77
2023/09/17 12:13:23;;;;;;;8.27;3.43;;;23.60;99.90;;;;;;4977335;28;20161;-78
2023/09/17 12:15:50;;;;;;;4.87;3.77;;;23.60;99.90;;;;;;4977141;28;20183;-77
2023/09/17 12:18:17;;;;;;;5.10;3.70;;;23.70;99.90;;;;;;4976252;28;20182;-77
2023/09/17 12:20:57;;;;;;;4.27;3.53;;;23.80;99.90;;;;;;4977046;28;20214;-78
2023/09/17 12:23:41;;;;;;;6.90;4.00;;;24.00;99.90;;;;;;4977156;28;20237;-78
2023/09/17 12:26:06;;;;;;;4.17;3.37;;;24.00;99.90;;;;;;4977132;28;20151;-77
2023/09/17 12:28:32;;;;;;;5.10;3.13;;;24.10;99.90;;;;;;4975930;28;20177;-80
2023/09/17 12:30:58;;;;;;;6.47;3.20;;;24.20;99.90;;;;;;4977991;28;20290;-80